sensor_id;sensor_type;location;lat;lon;timestamp;pressure;altitude;pressure_sealevel;temperature;humidity
11077;BME280;5591;42.626;23.380;2023-05-24T00:01:49;94004.47;;;15.02;100.00
11077;BME280;5591;42.626;23.380;2023-05-24T00:04:16;94008.22;;;14.95;100.00
11077;BME280;5591;42.626;23.380;2023-05-24T00:06:43;94003.06;;;14.82;100.00
11077;BME280;5591;42.626;23.380;2023-05-24T00:09:10;93999.69;;;14.75;100.00
11077;BME280;5591;42.626;23.380;2023-05-24T00:11:37;94005.16;;;14.74;100.00
11077;BME280;5591;42.626;23.380;2023-05-24T00:14:04;94005.88;;;14.63;100.00
11077;BME280;5591;42.626;23.380;2023-05-24T00:16:31;93999.06;;;14.55;100.00
11077;BME280;5591;42.626;23.380;2023-05-24T00:19:01;94005.22;;;14.49;100.00
11077;BME280;5591;42.626;23.380;2023-05-24T00:21:28;93998.97;;;14.44;100.00
11077;BME280;5591;42.626;23.380;2023-05-24T00:23:55;94007.88;;;14.49;100.00
11077;BME280;5591;42.626;23.380;2023-05-24T00:26:21;94001.38;;;14.45;100.00
11077;BME280;5591;42.626;23.380;2023-05-24T00:28:48;94005.44;;;14.48;100.00
11077;BME280;5591;42.626;23.380;2023-05-24T00:31:15;94000.03;;;14.36;100.00
11077;BME280;5591;42.626;23.380;2023-05-24T00:33:42;94003.63;;;14.48;100.00
11077;BME280;5591;42.626;23.380;2023-05-24T00:36:10;94001.38;;;14.45;100.00
11077;BME280;5591;42.626;23.380;2023-05-24T00:38:36;93953.13;;;14.14;100.00
11077;BME280;5591;42.626;23.380;2023-05-24T00:41:03;94002.84;;;14.41;100.00
11077;BME280;5591;42.626;23.380;2023-05-24T00:43:30;93993.00;;;14.30;100.00
11077;BME280;5591;42.626;23.380;2023-05-24T00:46:14;93998.34;;;14.24;100.00
11077;BME280;5591;42.626;23.380;2023-05-24T00:48:42;93993.97;;;14.05;100.00
11077;BME280;5591;42.626;23.380;2023-05-24T00:51:12;93990.44;;;13.93;100.00
11077;BME280;5591;42.626;23.380;2023-05-24T00:53:40;93996.72;;;13.92;100.00
11077;BME280;5591;42.626;23.380;2023-05-24T00:56:07;93997.81;;;13.78;100.00
11077;BME280;5591;42.626;23.380;2023-05-24T00:58:35;93997.38;;;13.87;100.00
11077;BME280;5591;42.626;23.380;2023-05-24T01:01:02;93997.81;;;13.78;100.00
11077;BME280;5591;42.626;23.380;2023-05-24T01:03:30;94000.06;;;13.81;100.00
11077;BME280;5591;42.626;23.380;2023-05-24T01:05:59;94002.13;;;13.72;100.00
11077;BME280;5591;42.626;23.380;2023-05-24T01:08:45;93993.41;;;13.72;100.00
11077;BME280;5591;42.626;23.380;2023-05-24T01:11:28;93993.84;;;13.62;100.00
11077;BME280;5591;42.626;23.380;2023-05-24T01:14:00;93960.78;;;13.35;100.00
11077;BME280;5591;42.626;23.380;2023-05-24T01:16:35;94001.81;;;13.56;100.00
11077;BME280;5591;42.626;23.380;2023-05-24T01:19:39;93993.09;;;13.55;100.00
11077;BME280;5591;42.626;23.380;2023-05-24T01:22:16;93986.41;;;13.53;100.00
11077;BME280;5591;42.626;23.380;2023-05-24T01:24:54;93996.13;;;13.59;100.00
11077;BME280;5591;42.626;23.380;2023-05-24T01:27:29;94000.72;;;13.70;100.00
11077;BME280;5591;42.626;23.380;2023-05-24T01:29:58;94007.63;;;13.71;100.00
11077;BME280;5591;42.626;23.380;2023-05-24T01:32:25;94010.06;;;13.66;100.00
11077;BME280;5591;42.626;23.380;2023-05-24T01:34:52;94017.44;;;13.57;100.00
11077;BME280;5591;42.626;23.380;2023-05-24T01:37:20;94022.09;;;13.55;100.00
11077;BME280;5591;42.626;23.380;2023-05-24T01:39:47;94012.22;;;13.44;100.00
11077;BME280;5591;42.626;23.380;2023-05-24T01:42:23;93967.81;;;13.10;100.00
11077;BME280;5591;42.626;23.380;2023-05-24T01:45:01;94014.28;;;13.42;100.00
11077;BME280;5591;42.626;23.380;2023-05-24T01:47:35;94001.75;;;13.31;100.00
11077;BME280;5591;42.626;23.380;2023-05-24T01:50:13;94011.50;;;13.24;100.00
11077;BME280;5591;42.626;23.380;2023-05-24T01:52:43;94010.56;;;13.12;100.00
11077;BME280;5591;42.626;23.380;2023-05-24T01:55:12;94005.69;;;13.16;100.00
11077;BME280;5591;42.626;23.380;2023-05-24T01:57:42;94012.75;;;13.15;100.00
11077;BME280;5591;42.626;23.380;2023-05-24T02:00:13;94001.00;;;13.18;100.00
11077;BME280;5591;42.626;23.380;2023-05-24T02:02:41;93996.91;;;13.22;100.00
11077;BME280;5591;42.626;23.380;2023-05-24T02:05:09;94022.44;;;13.28;100.00
11077;BME280;5591;42.626;23.380;2023-05-24T02:07:36;93998.50;;;13.29;100.00
11077;BME280;5591;42.626;23.380;2023-05-24T02:10:04;93993.63;;;13.33;100.00
11077;BME280;5591;42.626;23.380;2023-05-24T02:12:31;93991.03;;;13.26;100.00
11077;BME280;5591;42.626;23.380;2023-05-24T02:14:57;93998.97;;;13.20;100.00
11077;BME280;5591;42.626;23.380;2023-05-24T02:17:25;93995.28;;;13.27;100.00
11077;BME280;5591;42.626;23.380;2023-05-24T02:19:52;93994.16;;;13.04;100.00
11077;BME280;5591;42.626;23.380;2023-05-24T02:22:19;93979.59;;;12.82;100.00
11077;BME280;5591;42.626;23.380;2023-05-24T02:24:47;93984.50;;;12.78;100.00
11077;BME280;5591;42.626;23.380;2023-05-24T02:27:14;93971.97;;;12.61;100.00
11077;BME280;5591;42.626;23.380;2023-05-24T02:29:41;93775.13;;;11.49;100.00
11077;BME280;5591;42.626;23.380;2023-05-24T02:32:07;93981.25;;;12.83;100.00
11077;BME280;5591;42.626;23.380;2023-05-24T02:34:36;93979.59;;;12.82;100.00
11077;BME280;5591;42.626;23.380;2023-05-24T02:37:03;93985.28;;;12.79;100.00
11077;BME280;5591;42.626;23.380;2023-05-24T02:39:30;93978.41;;;12.78;100.00
11077;BME280;5591;42.626;23.380;2023-05-24T02:41:57;93982.88;;;12.77;100.00
11077;BME280;5591;42.626;23.380;2023-05-24T02:44:24;93986.53;;;12.70;100.00
11077;BME280;5591;42.626;23.380;2023-05-24T02:46:51;93980.66;;;12.68;100.00
11077;BME280;5591;42.626;23.380;2023-05-24T02:49:18;93977.03;;;12.62;100.00
11077;BME280;5591;42.626;23.380;2023-05-24T02:51:46;93988.53;;;12.74;100.00
11077;BME280;5591;42.626;23.380;2023-05-24T02:54:13;93984.53;;;12.59;100.00
11077;BME280;5591;42.626;23.380;2023-05-24T02:56:41;93982.50;;;12.61;100.00
11077;BME280;5591;42.626;23.380;2023-05-24T02:59:08;93982.88;;;12.71;100.00
11077;BME280;5591;42.626;23.380;2023-05-24T03:01:35;93980.88;;;12.60;100.00
11077;BME280;5591;42.626;23.380;2023-05-24T03:04:02;93988.38;;;12.69;100.00
11077;BME280;5591;42.626;23.380;2023-05-24T03:06:29;93987.31;;;12.83;100.00
11077;BME280;5591;42.626;23.380;2023-05-24T03:08:57;93992.78;;;12.88;100.00
11077;BME280;5591;42.626;23.380;2023-05-24T03:11:23;93987.09;;;12.98;100.00
11077;BME280;5591;42.626;23.380;2023-05-24T03:13:50;93988.69;;;13.05;100.00
11077;BME280;5591;42.626;23.380;2023-05-24T03:16:17;93999.56;;;13.22;100.00
11077;BME280;5591;42.626;23.380;2023-05-24T03:18:45;94000.00;;;13.12;100.00
11077;BME280;5591;42.626;23.380;2023-05-24T03:21:14;94003.41;;;13.26;100.00
11077;BME280;5591;42.626;23.380;2023-05-24T03:23:42;93994.72;;;13.19;100.00
11077;BME280;5591;42.626;23.380;2023-05-24T03:26:10;94002.47;;;13.45;100.00
11077;BME280;5591;42.626;23.380;2023-05-24T03:28:37;94005.34;;;13.43;100.00
11077;BME280;5591;42.626;23.380;2023-05-24T03:31:05;94010.09;;;13.22;100.00
11077;BME280;5591;42.626;23.380;2023-05-24T03:33:32;94021.03;;;13.25;100.00
11077;BME280;5591;42.626;23.380;2023-05-24T03:35:58;94011.16;;;13.14;100.00
11077;BME280;5591;42.626;23.380;2023-05-24T03:38:25;94021.19;;;13.30;100.00
11077;BME280;5591;42.626;23.380;2023-05-24T03:40:52;94018.19;;;13.27;100.00
11077;BME280;5591;42.626;23.380;2023-05-24T03:43:20;94017.97;;;13.28;100.00
11077;BME280;5591;42.626;23.380;2023-05-24T03:45:47;94017.94;;;13.41;100.00
11077;BME280;5591;42.626;23.380;2023-05-24T03:48:14;94020.13;;;13.44;100.00
11077;BME280;5591;42.626;23.380;2023-05-24T03:50:40;94020.38;;;13.36;100.00
11077;BME280;5591;42.626;23.380;2023-05-24T03:53:07;94018.03;;;13.59;100.00
11077;BME280;5591;42.626;23.380;2023-05-24T03:55:34;94012.31;;;13.69;100.00
11077;BME280;5591;42.626;23.380;2023-05-24T03:58:00;94012.53;;;13.61;100.00
11077;BME280;5591;42.626;23.380;2023-05-24T04:00:29;94008.34;;;13.53;100.00
11077;BME280;5591;42.626;23.380;2023-05-24T04:02:55;94019.50;;;13.86;100.00
11077;BME280;5591;42.626;23.380;2023-05-24T04:05:22;94021.41;;;14.04;100.00
11077;BME280;5591;42.626;23.380;2023-05-24T04:07:51;94019.88;;;14.14;100.00
11077;BME280;5591;42.626;23.380;2023-05-24T04:10:18;94021.66;;;14.27;100.00
11077;BME280;5591;42.626;23.380;2023-05-24T04:12:45;94026.88;;;14.33;100.00
11077;BME280;5591;42.626;23.380;2023-05-24T04:15:11;94026.22;;;14.38;100.00
11077;BME280;5591;42.626;23.380;2023-05-24T04:17:40;94029.44;;;14.64;100.00
11077;BME280;5591;42.626;23.380;2023-05-24T04:20:08;94012.59;;;14.83;100.00
11077;BME280;5591;42.626;23.380;2023-05-24T04:22:35;94023.09;;;14.90;100.00
11077;BME280;5591;42.626;23.380;2023-05-24T04:25:02;94031.06;;;15.07;100.00
11077;BME280;5591;42.626;23.380;2023-05-24T04:27:29;94031.94;;;15.19;100.00
11077;BME280;5591;42.626;23.380;2023-05-24T04:29:57;94086.56;;;15.07;100.00
11077;BME280;5591;42.626;23.380;2023-05-24T04:32:23;94030.41;;;15.30;100.00
11077;BME280;5591;42.626;23.380;2023-05-24T04:34:52;94030.13;;;15.67;100.00
11077;BME280;5591;42.626;23.380;2023-05-24T04:37:19;94030.03;;;15.74;100.00
11077;BME280;5591;42.626;23.380;2023-05-24T04:39:46;93962.00;;;15.15;100.00
11077;BME280;5591;42.626;23.380;2023-05-24T04:42:13;94032.66;;;15.92;100.00
11077;BME280;5591;42.626;23.380;2023-05-24T04:44:39;94038.28;;;16.25;100.00
11077;BME280;5591;42.626;23.380;2023-05-24T04:47:07;94047.44;;;16.40;100.00
11077;BME280;5591;42.626;23.380;2023-05-24T04:49:35;94050.31;;;16.39;100.00
11077;BME280;5591;42.626;23.380;2023-05-24T04:52:03;94053.78;;;16.39;100.00
11077;BME280;5591;42.626;23.380;2023-05-24T04:54:30;94054.38;;;16.53;100.00
11077;BME280;5591;42.626;23.380;2023-05-24T04:56:57;94053.34;;;16.54;100.00
11077;BME280;5591;42.626;23.380;2023-05-24T04:59:24;94063.00;;;16.48;100.00
11077;BME280;5591;42.626;23.380;2023-05-24T05:01:50;94058.19;;;16.80;100.00
11077;BME280;5591;42.626;23.380;2023-05-24T05:04:17;94054.75;;;17.02;100.00
11077;BME280;5591;42.626;23.380;2023-05-24T05:06:44;94044.97;;;16.91;100.00
11077;BME280;5591;42.626;23.380;2023-05-24T05:09:14;94058.56;;;16.95;100.00
11077;BME280;5591;42.626;23.380;2023-05-24T05:11:42;94061.19;;;17.06;100.00
11077;BME280;5591;42.626;23.380;2023-05-24T05:14:09;94059.38;;;17.07;100.00
11077;BME280;5591;42.626;23.380;2023-05-24T05:16:36;94079.31;;;16.98;100.00
11077;BME280;5591;42.626;23.380;2023-05-24T05:19:03;94052.19;;;17.19;100.00
11077;BME280;5591;42.626;23.380;2023-05-24T05:21:30;94059.69;;;17.22;100.00
11077;BME280;5591;42.626;23.380;2023-05-24T05:23:58;94063.38;;;17.21;100.00
11077;BME280;5591;42.626;23.380;2023-05-24T05:26:26;94059.91;;;16.97;100.00
11077;BME280;5591;42.626;23.380;2023-05-24T05:28:53;94003.09;;;17.05;100.00
11077;BME280;5591;42.626;23.380;2023-05-24T05:31:20;94008.19;;;16.72;100.00
11077;BME280;5591;42.626;23.380;2023-05-24T05:33:48;94057.34;;;17.60;100.00
11077;BME280;5591;42.626;23.380;2023-05-24T05:36:15;94056.41;;;17.65;100.00
11077;BME280;5591;42.626;23.380;2023-05-24T05:38:42;94065.34;;;18.15;100.00
11077;BME280;5591;42.626;23.380;2023-05-24T05:41:09;94056.66;;;18.31;100.00
11077;BME280;5591;42.626;23.380;2023-05-24T05:43:37;94093.03;;;18.31;100.00
11077;BME280;5591;42.626;23.380;2023-05-24T05:46:04;94063.44;;;18.55;100.00
11077;BME280;5591;42.626;23.380;2023-05-24T05:48:31;94071.94;;;18.85;100.00
11077;BME280;5591;42.626;23.380;2023-05-24T05:50:58;94054.63;;;19.04;98.35
11077;BME280;5591;42.626;23.380;2023-05-24T05:53:24;94067.72;;;19.22;96.22
11077;BME280;5591;42.626;23.380;2023-05-24T05:55:51;94058.72;;;19.45;94.46
11077;BME280;5591;42.626;23.380;2023-05-24T05:58:18;94044.09;;;19.47;92.86
11077;BME280;5591;42.626;23.380;2023-05-24T06:00:46;94055.47;;;19.05;92.92
11077;BME280;5591;42.626;23.380;2023-05-24T06:03:13;94062.31;;;18.68;96.69
11077;BME280;5591;42.626;23.380;2023-05-24T06:05:40;94076.06;;;18.48;99.81
11077;BME280;5591;42.626;23.380;2023-05-24T06:08:07;94064.66;;;18.48;98.05
11077;BME280;5591;42.626;23.380;2023-05-24T06:10:34;94070.28;;;18.23;100.00
11077;BME280;5591;42.626;23.380;2023-05-24T06:13:02;94077.06;;;18.42;98.97
11077;BME280;5591;42.626;23.380;2023-05-24T06:15:29;94070.22;;;19.29;93.53
11077;BME280;5591;42.626;23.380;2023-05-24T06:17:59;94075.59;;;18.51;98.02
11077;BME280;5591;42.626;23.380;2023-05-24T06:20:26;94083.19;;;18.92;97.47
11077;BME280;5591;42.626;23.380;2023-05-24T06:22:53;94072.31;;;19.27;94.94
11077;BME280;5591;42.626;23.380;2023-05-24T06:25:19;94075.34;;;19.73;92.85
11077;BME280;5591;42.626;23.380;2023-05-24T06:27:48;94072.66;;;19.95;90.51
11077;BME280;5591;42.626;23.380;2023-05-24T06:30:16;94070.63;;;19.59;92.97
11077;BME280;5591;42.626;23.380;2023-05-24T06:32:43;94070.59;;;19.97;92.39
11077;BME280;5591;42.626;23.380;2023-05-24T06:35:11;94075.91;;;20.18;91.42
11077;BME280;5591;42.626;23.380;2023-05-24T06:37:38;94076.81;;;20.81;86.71
11077;BME280;5591;42.626;23.380;2023-05-24T06:40:06;94077.94;;;20.11;85.99
11077;BME280;5591;42.626;23.380;2023-05-24T06:42:34;94081.81;;;19.39;93.52
11077;BME280;5591;42.626;23.380;2023-05-24T06:45:01;94116.84;;;19.53;94.57
11077;BME280;5591;42.626;23.380;2023-05-24T06:47:28;94076.31;;;19.67;93.00
11077;BME280;5591;42.626;23.380;2023-05-24T06:49:54;94069.72;;;20.13;88.96
11077;BME280;5591;42.626;23.380;2023-05-24T06:52:22;94069.56;;;20.77;83.37
11077;BME280;5591;42.626;23.380;2023-05-24T06:54:49;94065.91;;;21.19;81.15
11077;BME280;5591;42.626;23.380;2023-05-24T06:57:16;94061.06;;;21.53;81.15
11077;BME280;5591;42.626;23.380;2023-05-24T06:59:43;94066.94;;;21.55;81.59
11077;BME280;5591;42.626;23.380;2023-05-24T07:02:10;94068.75;;;20.76;84.00
11077;BME280;5591;42.626;23.380;2023-05-24T07:04:37;94061.69;;;20.60;82.82
11077;BME280;5591;42.626;23.380;2023-05-24T07:07:05;94038.41;;;20.82;81.96
11077;BME280;5591;42.626;23.380;2023-05-24T07:09:33;94053.72;;;20.92;85.35
11077;BME280;5591;42.626;23.380;2023-05-24T07:12:00;94055.31;;;21.29;84.48
11077;BME280;5591;42.626;23.380;2023-05-24T07:14:27;94059.91;;;21.85;78.82
11077;BME280;5591;42.626;23.380;2023-05-24T07:16:55;94057.59;;;22.04;76.84
11077;BME280;5591;42.626;23.380;2023-05-24T07:19:24;94062.28;;;22.43;75.99
11077;BME280;5591;42.626;23.380;2023-05-24T07:21:53;94062.53;;;21.70;77.44
11077;BME280;5591;42.626;23.380;2023-05-24T07:24:20;94066.38;;;21.89;78.93
11077;BME280;5591;42.626;23.380;2023-05-24T07:26:50;94070.34;;;22.58;74.66
11077;BME280;5591;42.626;23.380;2023-05-24T07:29:17;94071.19;;;22.84;71.86
11077;BME280;5591;42.626;23.380;2023-05-24T07:31:45;94076.81;;;23.02;72.54
11077;BME280;5591;42.626;23.380;2023-05-24T07:34:12;94070.38;;;23.48;68.52
11077;BME280;5591;42.626;23.380;2023-05-24T07:36:39;94073.06;;;23.33;67.76
11077;BME280;5591;42.626;23.380;2023-05-24T07:39:06;94068.22;;;23.50;67.95
11077;BME280;5591;42.626;23.380;2023-05-24T07:41:34;94070.41;;;23.18;69.97
11077;BME280;5591;42.626;23.380;2023-05-24T07:44:03;94040.94;;;23.28;67.88
11077;BME280;5591;42.626;23.380;2023-05-24T07:46:29;94068.97;;;23.90;67.64
11077;BME280;5591;42.626;23.380;2023-05-24T07:48:57;94071.09;;;23.83;68.53
11077;BME280;5591;42.626;23.380;2023-05-24T07:51:24;94069.50;;;23.87;68.72
11077;BME280;5591;42.626;23.380;2023-05-24T07:53:51;94065.38;;;24.10;66.63
11077;BME280;5591;42.626;23.380;2023-05-24T07:56:18;94071.22;;;24.22;65.99
11077;BME280;5591;42.626;23.380;2023-05-24T07:58:44;94063.00;;;24.08;68.14
11077;BME280;5591;42.626;23.380;2023-05-24T08:01:14;94060.44;;;24.32;68.84
11077;BME280;5591;42.626;23.380;2023-05-24T08:03:42;94052.69;;;24.30;62.90
11077;BME280;5591;42.626;23.380;2023-05-24T08:06:10;94067.25;;;24.14;61.48
11077;BME280;5591;42.626;23.380;2023-05-24T08:08:37;94065.47;;;23.95;64.62
11077;BME280;5591;42.626;23.380;2023-05-24T08:11:05;94098.22;;;24.45;60.61
11077;BME280;5591;42.626;23.380;2023-05-24T08:13:32;94068.03;;;24.73;56.75
11077;BME280;5591;42.626;23.380;2023-05-24T08:15:59;94069.28;;;24.37;55.42
11077;BME280;5591;42.626;23.380;2023-05-24T08:18:27;94053.06;;;24.09;59.49
11077;BME280;5591;42.626;23.380;2023-05-24T08:20:53;94056.34;;;24.93;57.30
11077;BME280;5591;42.626;23.380;2023-05-24T08:23:20;93967.66;;;24.69;55.60
11077;BME280;5591;42.626;23.380;2023-05-24T08:25:47;94055.56;;;25.26;55.34
11077;BME280;5591;42.626;23.380;2023-05-24T08:28:14;94049.63;;;24.95;53.42
11077;BME280;5591;42.626;23.380;2023-05-24T08:30:41;94063.22;;;25.09;50.05
11077;BME280;5591;42.626;23.380;2023-05-24T08:33:07;94089.84;;;25.39;46.88
11077;BME280;5591;42.626;23.380;2023-05-24T08:35:36;94052.97;;;25.44;46.23
11077;BME280;5591;42.626;23.380;2023-05-24T08:38:02;94060.13;;;25.82;45.89
11077;BME280;5591;42.626;23.380;2023-05-24T08:40:29;94053.97;;;26.05;45.67
11077;BME280;5591;42.626;23.380;2023-05-24T08:42:58;94055.81;;;25.86;46.07
11077;BME280;5591;42.626;23.380;2023-05-24T08:45:28;94059.03;;;25.83;46.36
11077;BME280;5591;42.626;23.380;2023-05-24T08:47:56;94024.97;;;26.02;45.48
11077;BME280;5591;42.626;23.380;2023-05-24T08:50:23;94055.59;;;25.77;46.53
11077;BME280;5591;42.626;23.380;2023-05-24T08:52:53;94063.13;;;25.52;46.55
11077;BME280;5591;42.626;23.380;2023-05-24T08:55:20;94059.03;;;25.88;46.09
11077;BME280;5591;42.626;23.380;2023-05-24T08:57:47;94061.53;;;25.23;44.64
11077;BME280;5591;42.626;23.380;2023-05-24T09:00:15;94054.59;;;25.12;46.15
11077;BME280;5591;42.626;23.380;2023-05-24T09:02:43;94056.94;;;25.80;44.25
11077;BME280;5591;42.626;23.380;2023-05-24T09:05:12;94059.09;;;26.06;43.18
11077;BME280;5591;42.626;23.380;2023-05-24T09:07:42;94057.44;;;26.52;42.34
11077;BME280;5591;42.626;23.380;2023-05-24T09:10:11;94065.16;;;26.77;42.16
11077;BME280;5591;42.626;23.380;2023-05-24T09:12:40;94062.84;;;26.89;42.16
11077;BME280;5591;42.626;23.380;2023-05-24T09:15:10;94063.50;;;25.69;42.00
11077;BME280;5591;42.626;23.380;2023-05-24T09:17:37;94025.78;;;25.74;42.37
11077;BME280;5591;42.626;23.380;2023-05-24T09:20:05;94053.19;;;26.46;41.51
11077;BME280;5591;42.626;23.380;2023-05-24T09:22:34;94057.91;;;26.12;41.25
11077;BME280;5591;42.626;23.380;2023-05-24T09:25:02;94067.72;;;24.26;43.81
11077;BME280;5591;42.626;23.380;2023-05-24T09:27:32;94066.59;;;24.42;44.75
11077;BME280;5591;42.626;23.380;2023-05-24T09:30:00;94065.47;;;24.48;44.26
11077;BME280;5591;42.626;23.380;2023-05-24T09:32:30;94062.94;;;25.44;43.38
11077;BME280;5591;42.626;23.380;2023-05-24T09:34:57;94021.50;;;25.73;41.66
11077;BME280;5591;42.626;23.380;2023-05-24T09:37:25;94052.00;;;26.34;41.55
11077;BME280;5591;42.626;23.380;2023-05-24T09:39:54;94055.13;;;26.83;40.41
11077;BME280;5591;42.626;23.380;2023-05-24T09:42:23;94019.34;;;26.77;39.31
11077;BME280;5591;42.626;23.380;2023-05-24T09:45:01;94048.53;;;27.07;39.32
11077;BME280;5591;42.626;23.380;2023-05-24T09:47:31;94048.22;;;25.65;40.55
11077;BME280;5591;42.626;23.380;2023-05-24T09:49:59;94046.81;;;25.10;41.62
11077;BME280;5591;42.626;23.380;2023-05-24T09:52:26;94051.41;;;25.67;39.83
11077;BME280;5591;42.626;23.380;2023-05-24T09:54:53;94051.47;;;25.90;38.71
11077;BME280;5591;42.626;23.380;2023-05-24T09:57:20;93993.88;;;26.33;38.13
11077;BME280;5591;42.626;23.380;2023-05-24T09:59:48;94030.63;;;25.77;39.65
11077;BME280;5591;42.626;23.380;2023-05-24T10:02:20;94040.16;;;26.11;39.17
11077;BME280;5591;42.626;23.380;2023-05-24T10:04:49;94040.19;;;26.90;39.02
11077;BME280;5591;42.626;23.380;2023-05-24T10:07:23;94020.38;;;27.00;38.99
11077;BME280;5591;42.626;23.380;2023-05-24T10:09:50;94037.47;;;27.09;39.56
11077;BME280;5591;42.626;23.380;2023-05-24T10:12:17;94032.34;;;27.71;38.65
11077;BME280;5591;42.626;23.380;2023-05-24T10:14:47;94033.63;;;28.06;37.26
11077;BME280;5591;42.626;23.380;2023-05-24T10:17:17;94022.56;;;27.62;38.06
11077;BME280;5591;42.626;23.380;2023-05-24T10:19:44;94024.72;;;28.46;37.07
11077;BME280;5591;42.626;23.380;2023-05-24T10:22:13;94013.59;;;28.47;36.68
11077;BME280;5591;42.626;23.380;2023-05-24T10:24:45;94028.91;;;28.87;35.69
11077;BME280;5591;42.626;23.380;2023-05-24T10:27:14;94038.28;;;28.54;34.56
11077;BME280;5591;42.626;23.380;2023-05-24T10:29:47;94031.44;;;28.35;35.18
11077;BME280;5591;42.626;23.380;2023-05-24T10:32:20;94029.38;;;28.89;35.50
11077;BME280;5591;42.626;23.380;2023-05-24T10:34:49;94008.84;;;29.01;34.20
11077;BME280;5591;42.626;23.380;2023-05-24T10:37:18;94058.41;;;29.32;33.56
11077;BME280;5591;42.626;23.380;2023-05-24T10:39:45;94024.91;;;28.84;34.61
11077;BME280;5591;42.626;23.380;2023-05-24T10:42:12;94023.72;;;28.77;33.64
11077;BME280;5591;42.626;23.380;2023-05-24T10:44:38;94013.91;;;28.46;34.17
11077;BME280;5591;42.626;23.380;2023-05-24T10:47:07;94011.63;;;29.10;32.97
11077;BME280;5591;42.626;23.380;2023-05-24T10:49:36;94009.59;;;29.15;34.13
11077;BME280;5591;42.626;23.380;2023-05-24T10:52:07;94013.09;;;29.38;35.15
11077;BME280;5591;42.626;23.380;2023-05-24T10:54:34;94002.56;;;29.89;33.55
11077;BME280;5591;42.626;23.380;2023-05-24T10:57:03;94000.97;;;29.35;34.62
11077;BME280;5591;42.626;23.380;2023-05-24T10:59:32;93929.50;;;28.97;34.52
11077;BME280;5591;42.626;23.380;2023-05-24T11:02:03;93997.19;;;29.97;32.82
11077;BME280;5591;42.626;23.380;2023-05-24T11:04:37;93995.59;;;29.96;32.61
11077;BME280;5591;42.626;23.380;2023-05-24T11:07:07;93954.31;;;29.30;33.17
11077;BME280;5591;42.626;23.380;2023-05-24T11:09:37;93985.78;;;29.78;33.14
11077;BME280;5591;42.626;23.380;2023-05-24T11:12:13;93985.88;;;29.95;33.52
11077;BME280;5591;42.626;23.380;2023-05-24T11:14:46;93975.28;;;29.77;34.50
11077;BME280;5591;42.626;23.380;2023-05-24T11:17:13;93989.28;;;30.09;33.31
11077;BME280;5591;42.626;23.380;2023-05-24T11:19:47;93981.56;;;29.64;33.36
11077;BME280;5591;42.626;23.380;2023-05-24T11:22:15;93978.69;;;29.91;34.40
11077;BME280;5591;42.626;23.380;2023-05-24T11:24:42;93982.91;;;30.87;33.30
11077;BME280;5591;42.626;23.380;2023-05-24T11:27:10;93991.81;;;31.47;33.16
11077;BME280;5591;42.626;23.380;2023-05-24T11:29:42;93982.28;;;32.53;31.37
11077;BME280;5591;42.626;23.380;2023-05-24T11:32:09;93982.84;;;33.08;30.39
11077;BME280;5591;42.626;23.380;2023-05-24T11:34:39;93891.34;;;34.04;28.70
11077;BME280;5591;42.626;23.380;2023-05-24T11:37:11;93962.94;;;34.88;28.21
11077;BME280;5591;42.626;23.380;2023-05-24T11:39:38;93977.31;;;35.13;28.03
11077;BME280;5591;42.626;23.380;2023-05-24T11:42:06;93981.09;;;36.37;27.28
11077;BME280;5591;42.626;23.380;2023-05-24T11:44:34;93998.56;;;36.33;27.32
11077;BME280;5591;42.626;23.380;2023-05-24T11:47:04;93967.78;;;37.20;26.14
11077;BME280;5591;42.626;23.380;2023-05-24T11:49:31;93981.47;;;37.77;25.21
11077;BME280;5591;42.626;23.380;2023-05-24T11:51:59;93960.00;;;38.46;25.06
11077;BME280;5591;42.626;23.380;2023-05-24T11:54:27;93958.44;;;38.45;24.39
11077;BME280;5591;42.626;23.380;2023-05-24T11:56:56;93953.75;;;38.98;24.42
11077;BME280;5591;42.626;23.380;2023-05-24T11:59:24;93949.97;;;39.39;23.85
11077;BME280;5591;42.626;23.380;2023-05-24T12:01:56;93948.69;;;39.99;22.85
11077;BME280;5591;42.626;23.380;2023-05-24T12:04:24;93938.88;;;39.28;23.01
11077;BME280;5591;42.626;23.380;2023-05-24T12:06:52;93893.09;;;40.23;22.18
11077;BME280;5591;42.626;23.380;2023-05-24T12:09:19;93942.06;;;40.47;22.05
11077;BME280;5591;42.626;23.380;2023-05-24T12:11:48;93945.81;;;38.93;23.85
11077;BME280;5591;42.626;23.380;2023-05-24T12:14:17;93948.28;;;39.01;23.19
11077;BME280;5591;42.626;23.380;2023-05-24T12:16:45;93938.16;;;38.53;23.18
11077;BME280;5591;42.626;23.380;2023-05-24T12:19:15;93947.38;;;37.18;24.78
11077;BME280;5591;42.626;23.380;2023-05-24T12:21:41;93931.63;;;39.17;22.48
11077;BME280;5591;42.626;23.380;2023-05-24T12:24:10;93938.81;;;37.57;23.33
11077;BME280;5591;42.626;23.380;2023-05-24T12:26:40;93891.69;;;35.76;24.75
11077;BME280;5591;42.626;23.380;2023-05-24T12:29:10;93928.97;;;35.84;25.34
11077;BME280;5591;42.626;23.380;2023-05-24T12:31:38;93931.91;;;37.06;24.33
11077;BME280;5591;42.626;23.380;2023-05-24T12:34:06;93834.34;;;38.07;23.85
11077;BME280;5591;42.626;23.380;2023-05-24T12:36:33;93915.75;;;38.77;23.84
11077;BME280;5591;42.626;23.380;2023-05-24T12:39:15;93917.41;;;40.10;23.23
11077;BME280;5591;42.626;23.380;2023-05-24T12:41:43;93916.63;;;40.13;23.25
11077;BME280;5591;42.626;23.380;2023-05-24T12:44:11;93917.84;;;38.58;24.17
11077;BME280;5591;42.626;23.380;2023-05-24T12:46:38;93915.66;;;38.18;23.92
11077;BME280;5591;42.626;23.380;2023-05-24T12:49:05;93923.69;;;39.41;23.00
11077;BME280;5591;42.626;23.380;2023-05-24T12:51:32;93918.97;;;40.58;22.16
11077;BME280;5591;42.626;23.380;2023-05-24T12:53:58;93915.06;;;40.63;21.94
11077;BME280;5591;42.626;23.380;2023-05-24T12:56:29;93916.34;;;40.79;22.29
11077;BME280;5591;42.626;23.380;2023-05-24T12:58:56;93918.56;;;41.17;21.30
11077;BME280;5591;42.626;23.380;2023-05-24T13:01:24;93912.09;;;41.74;21.06